createdAt,value
2022-11-09T00:01:03.204Z,8.60
2022-11-09T00:03:31.027Z,8.60
2022-11-09T00:05:59.630Z,8.60
2022-11-09T00:08:27.625Z,8.60
2022-11-09T00:10:55.167Z,8.60
2022-11-09T00:13:23.314Z,8.60
2022-11-09T00:15:51.103Z,8.60
2022-11-09T00:18:18.687Z,8.60
2022-11-09T00:20:48.241Z,8.60
2022-11-09T00:23:17.288Z,8.60
2022-11-09T00:25:45.287Z,8.60
2022-11-09T00:28:12.897Z,8.60
2022-11-09T00:30:41.570Z,8.60
2022-11-09T00:33:12.284Z,8.60
2022-11-09T00:35:44.038Z,8.60
2022-11-09T00:38:11.604Z,8.50
2022-11-09T00:40:39.220Z,8.50
2022-11-09T00:43:06.773Z,8.50
2022-11-09T00:45:34.334Z,8.50
2022-11-09T00:48:02.273Z,8.50
2022-11-09T00:50:30.087Z,8.50
2022-11-09T00:52:57.886Z,8.50
2022-11-09T00:55:26.137Z,8.50
2022-11-09T00:57:53.829Z,8.50
2022-11-09T01:00:24.362Z,8.40
2022-11-09T01:02:53.604Z,8.40
2022-11-09T01:05:21.249Z,8.40
2022-11-09T01:07:50.783Z,8.40
2022-11-09T01:10:18.414Z,8.40
2022-11-09T01:12:47.372Z,8.40
2022-11-09T01:15:16.025Z,8.40
2022-11-09T01:17:43.677Z,8.40
2022-11-09T01:20:11.784Z,8.40
2022-11-09T01:22:39.319Z,8.40
2022-11-09T01:25:07.501Z,8.40
2022-11-09T01:27:35.630Z,8.40
2022-11-09T01:30:07.019Z,8.30
2022-11-09T01:32:34.677Z,8.30
2022-11-09T01:35:02.184Z,8.30
2022-11-09T01:37:31.639Z,8.30
2022-11-09T01:39:59.388Z,8.30
2022-11-09T01:42:27.068Z,8.20
2022-11-09T01:45:17.547Z,8.30
2022-11-09T01:47:50.660Z,8.10
2022-11-09T01:50:27.665Z,8.30
2022-11-09T01:52:55.463Z,8.20
2022-11-09T01:55:24.986Z,8.30
2022-11-09T01:57:57.061Z,8.30
2022-11-09T02:00:24.807Z,8.30
2022-11-09T02:02:57.642Z,8.30
2022-11-09T02:05:31.008Z,8.20
2022-11-09T02:07:59.574Z,8.30
2022-11-09T02:10:49.043Z,8.20
2022-11-09T02:13:20.124Z,8.30
2022-11-09T02:15:49.636Z,8.30
2022-11-09T02:18:17.960Z,8.20
2022-11-09T02:20:51.742Z,8.20
2022-11-09T02:23:24.457Z,8.20
2022-11-09T02:25:57.287Z,8.30
2022-11-09T02:28:26.470Z,8.30
2022-11-09T02:30:56.905Z,8.30
2022-11-09T02:33:26.178Z,8.30
2022-11-09T02:35:54.894Z,8.30
2022-11-09T02:38:23.103Z,8.30
2022-11-09T02:40:52.373Z,8.30
2022-11-09T02:43:20.615Z,8.30
2022-11-09T02:45:49.389Z,8.30
2022-11-09T02:48:17.507Z,8.30
2022-11-09T02:50:45.065Z,8.30
2022-11-09T02:53:12.583Z,8.40
2022-11-09T02:55:43.822Z,8.40
2022-11-09T02:58:12.467Z,8.40
2022-11-09T03:00:40.902Z,8.40
2022-11-09T03:03:08.903Z,8.40
2022-11-09T03:05:36.501Z,8.50
2022-11-09T03:10:35.078Z,8.60
2022-11-09T03:13:03.009Z,8.60
2022-11-09T03:15:30.667Z,8.60
2022-11-09T03:17:58.345Z,8.60
2022-11-09T03:20:25.966Z,8.50
2022-11-09T03:22:57.974Z,8.50
2022-11-09T03:25:26.996Z,8.50
2022-11-09T03:28:02.673Z,8.50
2022-11-09T03:30:30.245Z,8.60
2022-11-09T03:33:10.361Z,8.50
2022-11-09T03:35:39.152Z,8.60
2022-11-09T03:38:07.189Z,8.50
2022-11-09T03:40:36.082Z,8.60
2022-11-09T03:43:03.877Z,8.60
2022-11-09T03:45:32.242Z,8.60
2022-11-09T03:48:02.489Z,8.60
2022-11-09T03:50:31.678Z,8.70
2022-11-09T03:53:00.032Z,8.70
2022-11-09T03:55:28.730Z,8.70
2022-11-09T03:57:56.297Z,8.80
2022-11-09T04:00:24.820Z,8.80
2022-11-09T04:02:52.522Z,8.80
2022-11-09T04:05:20.505Z,8.80
2022-11-09T04:07:55.910Z,8.90
2022-11-09T04:10:25.040Z,8.90
2022-11-09T04:12:53.016Z,8.90
2022-11-09T04:15:20.953Z,8.90
2022-11-09T04:17:59.114Z,8.90
2022-11-09T04:20:29.029Z,8.70
2022-11-09T04:23:02.763Z,8.70
2022-11-09T04:25:33.805Z,8.70
2022-11-09T04:28:03.037Z,8.60
2022-11-09T04:30:32.857Z,8.50
2022-11-09T04:33:01.546Z,8.50
2022-11-09T04:35:30.569Z,8.40
2022-11-09T04:38:00.938Z,8.50
2022-11-09T04:40:30.697Z,8.40
2022-11-09T04:43:03.059Z,8.40
2022-11-09T04:45:32.353Z,8.40
2022-11-09T04:48:05.107Z,8.40
2022-11-09T04:50:33.582Z,8.40
2022-11-09T04:53:09.953Z,8.50
2022-11-09T04:55:37.982Z,8.50
2022-11-09T04:58:05.910Z,8.60
2022-11-09T05:00:34.107Z,8.70
2022-11-09T05:03:05.823Z,8.70
2022-11-09T05:05:34.431Z,8.80
2022-11-09T05:08:02.653Z,8.90
2022-11-09T05:10:30.892Z,8.90
2022-11-09T05:13:03.669Z,8.90
2022-11-09T05:15:32.053Z,9.10
2022-11-09T05:18:01.599Z,9.10
2022-11-09T05:20:29.913Z,9.20
2022-11-09T05:23:19.787Z,9.20
2022-11-09T05:25:47.741Z,9.20
2022-11-09T05:28:15.477Z,9.20
2022-11-09T05:30:43.206Z,9.20
2022-11-09T05:33:10.802Z,9.30
2022-11-09T05:35:38.437Z,9.30
2022-11-09T05:38:06.025Z,9.30
2022-11-09T05:40:34.079Z,9.40
2022-11-09T05:43:01.623Z,9.40
2022-11-09T05:45:42.612Z,9.40
2022-11-09T05:48:12.657Z,9.50
2022-11-09T05:50:44.086Z,9.50
2022-11-09T05:53:27.838Z,9.60
2022-11-09T05:55:55.705Z,9.60
2022-11-09T06:01:14.719Z,9.60
2022-11-09T06:03:44.229Z,9.70
2022-11-09T06:06:16.548Z,9.60
2022-11-09T06:08:44.148Z,9.60
2022-11-09T06:11:17.031Z,9.60
2022-11-09T06:13:49.350Z,9.60
2022-11-09T06:16:16.833Z,9.50
2022-11-09T06:18:44.389Z,9.50
2022-11-09T06:21:12.491Z,9.50
2022-11-09T06:23:40.357Z,9.50
2022-11-09T06:26:10.420Z,9.40
2022-11-09T06:28:38.949Z,9.50
2022-11-09T06:31:10.212Z,9.50
2022-11-09T06:33:37.827Z,9.50
2022-11-09T06:36:06.381Z,9.50
2022-11-09T06:38:33.873Z,9.50
2022-11-09T06:41:01.734Z,9.50
2022-11-09T06:43:29.642Z,9.50
2022-11-09T06:45:57.247Z,9.50
2022-11-09T06:48:25.135Z,9.50
2022-11-09T06:50:52.733Z,9.50
2022-11-09T06:53:20.716Z,9.50
2022-11-09T06:55:50.857Z,9.50
2022-11-09T06:58:19.762Z,9.50
2022-11-09T07:00:47.630Z,9.40
2022-11-09T07:03:17.274Z,9.50
2022-11-09T07:05:45.733Z,9.40
2022-11-09T07:08:14.610Z,9.40
2022-11-09T07:10:42.544Z,9.40
2022-11-09T07:13:10.813Z,9.40
2022-11-09T07:15:39.489Z,9.40
2022-11-09T07:18:10.029Z,9.30
2022-11-09T07:20:37.789Z,9.30
2022-11-09T07:23:05.371Z,9.30
2022-11-09T07:25:33.679Z,9.30
2022-11-09T07:28:08.974Z,9.30
2022-11-09T07:30:37.181Z,9.20
2022-11-09T07:33:15.774Z,9.20
2022-11-09T07:35:43.293Z,9.20
2022-11-09T07:38:11.426Z,9.20
2022-11-09T07:40:39.570Z,9.10
2022-11-09T07:43:07.940Z,9.20
2022-11-09T07:45:38.401Z,9.20
2022-11-09T07:48:09.274Z,9.20
2022-11-09T07:50:38.461Z,9.20
2022-11-09T07:53:09.226Z,9.30
2022-11-09T07:55:37.282Z,9.40
2022-11-09T07:58:07.524Z,9.40
2022-11-09T08:00:36.609Z,9.40
2022-11-09T08:03:04.774Z,9.40
2022-11-09T08:05:32.493Z,9.50
2022-11-09T08:08:03.077Z,9.40
2022-11-09T08:10:32.142Z,9.40
2022-11-09T08:13:09.534Z,9.50
2022-11-09T08:15:38.431Z,9.70
2022-11-09T08:18:10.385Z,10.50
2022-11-09T08:20:38.010Z,10.50
2022-11-09T08:23:06.443Z,10.70
2022-11-09T08:25:35.273Z,10.60
2022-11-09T08:28:09.507Z,10.50
2022-11-09T08:30:41.054Z,10.30
2022-11-09T08:33:08.670Z,10.20
2022-11-09T08:35:36.270Z,10.10
2022-11-09T08:38:05.941Z,10.10
2022-11-09T08:40:33.823Z,10.60
2022-11-09T08:43:06.924Z,10.60
2022-11-09T08:45:38.303Z,11.00
2022-11-09T08:48:07.448Z,11.50
2022-11-09T08:50:36.874Z,11.80
2022-11-09T08:53:05.499Z,11.80
2022-11-09T08:55:33.225Z,11.80
2022-11-09T08:58:02.055Z,12.10
2022-11-09T09:00:30.315Z,12.50
2022-11-09T09:02:58.074Z,13.10
2022-11-09T09:05:26.561Z,14.50
2022-11-09T09:07:54.124Z,13.60
2022-11-09T09:10:21.773Z,13.70
2022-11-09T09:12:49.269Z,13.90
2022-11-09T09:15:16.908Z,14.30
2022-11-09T09:17:45.028Z,14.70
2022-11-09T09:20:12.685Z,15.20
2022-11-09T09:22:40.502Z,15.20
2022-11-09T09:25:08.594Z,15.60
2022-11-09T09:27:37.027Z,15.60
2022-11-09T09:30:05.269Z,15.90
2022-11-09T09:32:32.841Z,16.00
2022-11-09T09:35:00.312Z,16.10
2022-11-09T09:37:27.988Z,16.50
2022-11-09T09:39:55.646Z,16.40
2022-11-09T09:42:30.777Z,16.00
2022-11-09T09:45:19.310Z,16.00
2022-11-09T09:47:53.239Z,15.60
2022-11-09T09:50:46.095Z,15.80
2022-11-09T09:53:24.885Z,15.90
2022-11-09T09:56:19.403Z,16.80
2022-11-09T09:58:57.050Z,17.30
2022-11-09T10:01:35.110Z,17.60
2022-11-09T10:06:33.726Z,17.90
2022-11-09T10:09:23.074Z,18.00
2022-11-09T10:12:31.747Z,17.40
2022-11-09T10:15:19.499Z,16.10
2022-11-09T10:18:37.394Z,15.00
2022-11-09T10:21:19.796Z,14.10
2022-11-09T10:24:02.085Z,13.70
2022-11-09T10:26:55.932Z,13.20
2022-11-09T10:31:56.027Z,12.80
2022-11-09T10:37:13.120Z,12.60
2022-11-09T10:39:49.138Z,12.50
2022-11-09T10:42:35.640Z,12.30
2022-11-09T10:48:31.862Z,12.20
2022-11-09T10:51:35.502Z,12.20
2022-11-09T10:54:23.833Z,12.30
2022-11-09T10:57:21.968Z,12.30
2022-11-09T11:00:18.333Z,12.40
2022-11-09T11:06:27.384Z,12.30
2022-11-09T11:09:16.632Z,12.20
2022-11-09T11:12:17.529Z,11.80
2022-11-09T11:23:26.100Z,12.40
2022-11-09T11:26:18.427Z,13.20
2022-11-09T11:29:27.244Z,14.60
2022-11-09T11:32:18.669Z,16.40
2022-11-09T11:35:16.597Z,17.20
2022-11-09T11:38:51.309Z,18.30
2022-11-09T11:41:43.214Z,19.00
2022-11-09T11:45:25.557Z,19.10
2022-11-09T11:48:21.698Z,18.80
2022-11-09T11:51:43.599Z,19.30
2022-11-09T11:54:38.294Z,18.60
2022-11-09T11:57:32.314Z,17.90
2022-11-09T12:15:01.227Z,19.20
2022-11-09T12:23:30.419Z,20.70
2022-11-09T12:32:22.993Z,19.00
2022-11-09T12:35:15.447Z,18.80
2022-11-09T12:44:02.445Z,18.20
2022-11-09T12:49:49.433Z,16.00
2022-11-09T12:52:37.417Z,15.40
2022-11-09T12:55:39.652Z,14.80
2022-11-09T12:58:31.160Z,14.30
2022-11-09T13:01:26.249Z,13.90
2022-11-09T13:04:18.350Z,13.50
2022-11-09T13:09:55.128Z,13.20
2022-11-09T13:21:22.711Z,17.20
2022-11-09T13:27:38.178Z,19.40
2022-11-09T13:30:36.409Z,20.10
2022-11-09T13:39:41.958Z,21.10
2022-11-09T13:42:35.945Z,21.50
2022-11-09T13:45:41.672Z,21.70
2022-11-09T13:51:36.030Z,20.60
2022-11-09T13:57:16.570Z,17.50
2022-11-09T14:05:48.458Z,15.50
2022-11-09T14:11:36.601Z,15.50
2022-11-09T14:31:45.612Z,18.80
2022-11-09T14:34:31.581Z,18.50
2022-11-09T14:37:18.430Z,18.00
2022-11-09T14:40:04.738Z,16.80
2022-11-09T14:43:23.576Z,16.40
2022-11-09T14:46:18.070Z,15.60
2022-11-09T14:49:04.818Z,15.10
2022-11-09T14:51:50.865Z,15.00
2022-11-09T14:54:36.842Z,15.00
2022-11-09T14:57:23.871Z,15.10
2022-11-09T15:00:44.668Z,15.50
2022-11-09T15:03:32.048Z,15.60
2022-11-09T15:06:18.338Z,15.60
2022-11-09T15:09:09.044Z,15.20
2022-11-09T15:11:55.214Z,15.10
2022-11-09T15:14:41.654Z,14.70
2022-11-09T15:17:30.617Z,14.30
2022-11-09T15:20:16.736Z,13.90
2022-11-09T15:23:22.329Z,13.90
2022-11-09T15:26:26.501Z,14.10
2022-11-09T15:29:40.302Z,15.00
2022-11-09T15:32:26.754Z,15.00
2022-11-09T15:35:19.109Z,14.80
2022-11-09T15:38:05.343Z,14.60
2022-11-09T15:40:51.475Z,14.30
2022-11-09T15:43:37.501Z,14.20
2022-11-09T15:46:29.886Z,14.40
2022-11-09T15:49:23.296Z,15.00
2022-11-09T15:52:11.701Z,15.00
2022-11-09T15:54:57.456Z,15.10
2022-11-09T15:57:44.211Z,14.90
2022-11-09T16:00:30.358Z,14.30
2022-11-09T16:03:17.877Z,13.90
2022-11-09T16:06:05.629Z,13.50
2022-11-09T16:08:53.574Z,12.80
2022-11-09T16:11:39.999Z,12.70
2022-11-09T16:14:25.998Z,12.50
2022-11-09T16:17:12.173Z,12.30
2022-11-09T16:19:58.070Z,12.00
2022-11-09T16:22:44.526Z,11.90
2022-11-09T16:25:30.948Z,11.80
2022-11-09T16:28:19.048Z,11.60
2022-11-09T16:31:05.784Z,11.40
2022-11-09T16:33:51.815Z,11.40
2022-11-09T16:36:44.279Z,11.30
2022-11-09T16:39:35.562Z,11.20
2022-11-09T16:42:21.480Z,11.10
2022-11-09T16:45:11.950Z,11.10
2022-11-09T16:47:58.453Z,11.10
2022-11-09T16:50:45.138Z,11.10
2022-11-09T16:53:31.109Z,11.00
2022-11-09T16:56:17.232Z,10.90
2022-11-09T16:59:03.612Z,10.90
2022-11-09T17:01:54.754Z,10.90
2022-11-09T17:04:40.869Z,11.90
2022-11-09T17:07:27.880Z,10.90
2022-11-09T17:10:14.770Z,10.80
2022-11-09T17:13:00.680Z,10.80
2022-11-09T17:15:48.808Z,10.80
2022-11-09T17:18:35.250Z,10.80
2022-11-09T17:21:22.054Z,10.80
2022-11-09T17:24:08.002Z,10.80
2022-11-09T17:26:54.128Z,10.80
2022-11-09T17:29:40.268Z,10.80
2022-11-09T17:32:28.236Z,10.80
2022-11-09T17:35:14.245Z,10.80
2022-11-09T17:38:00.149Z,10.80
2022-11-09T17:40:46.262Z,10.80
2022-11-09T17:43:33.461Z,10.70
2022-11-09T17:46:21.677Z,10.80
2022-11-09T17:49:10.167Z,10.80
2022-11-09T17:51:56.771Z,10.80
2022-11-09T17:54:42.818Z,10.80
2022-11-09T17:57:28.790Z,10.80
2022-11-09T18:00:15.462Z,10.70
2022-11-09T18:03:01.362Z,10.70
2022-11-09T18:05:47.541Z,10.60
2022-11-09T18:08:34.048Z,10.60
2022-11-09T18:11:20.062Z,10.50
2022-11-09T18:14:06.927Z,10.50
2022-11-09T18:16:53.233Z,10.40
2022-11-09T18:19:39.689Z,10.40
2022-11-09T18:22:25.603Z,10.40
2022-11-09T18:25:11.988Z,10.30
2022-11-09T18:27:58.141Z,10.30
2022-11-09T18:30:44.018Z,10.30
2022-11-09T18:33:30.795Z,10.30
2022-11-09T18:36:21.104Z,10.30
2022-11-09T18:39:07.225Z,10.30
2022-11-09T18:41:54.631Z,10.30
2022-11-09T18:44:40.625Z,10.40
2022-11-09T18:47:26.905Z,10.30
2022-11-09T18:50:13.066Z,10.30
2022-11-09T18:52:59.091Z,10.30
2022-11-09T18:55:45.172Z,10.30
2022-11-09T18:58:31.685Z,10.30
2022-11-09T19:01:18.027Z,10.30
2022-11-09T19:04:03.805Z,10.30
2022-11-09T19:06:50.177Z,10.40
2022-11-09T19:09:39.019Z,10.50
2022-11-09T19:12:25.566Z,10.50
2022-11-09T19:15:12.063Z,10.60
2022-11-09T19:17:58.046Z,10.60
2022-11-09T19:20:43.991Z,10.60
2022-11-09T19:23:34.335Z,10.60
2022-11-09T19:26:22.408Z,10.60
2022-11-09T19:29:09.842Z,10.70
2022-11-09T19:32:46.328Z,10.80
2022-11-09T19:35:36.064Z,7.20
2022-11-09T19:38:24.501Z,10.80
2022-11-09T19:41:11.765Z,10.80
2022-11-09T19:43:59.477Z,10.70
2022-11-09T19:46:45.677Z,10.70
2022-11-09T19:49:32.260Z,10.50
2022-11-09T19:52:19.665Z,10.40
2022-11-09T19:55:08.096Z,10.40
2022-11-09T19:57:54.909Z,10.40
2022-11-09T20:00:41.168Z,10.30
2022-11-09T20:03:30.262Z,10.30
2022-11-09T20:06:17.310Z,10.30
2022-11-09T20:09:05.479Z,10.20
2022-11-09T20:12:10.742Z,10.10
2022-11-09T20:14:58.310Z,10.10
2022-11-09T20:17:44.775Z,10.10
2022-11-09T20:20:31.253Z,10.00
2022-11-09T20:23:21.526Z,9.90
2022-11-09T20:26:10.183Z,9.90
2022-11-09T20:28:56.784Z,9.90
2022-11-09T20:31:45.654Z,9.90
2022-11-09T20:34:34.801Z,10.00
2022-11-09T20:37:22.077Z,10.00
2022-11-09T20:40:10.097Z,10.10
2022-11-09T20:42:56.708Z,10.10
2022-11-09T20:48:52.623Z,10.20
2022-11-09T20:51:38.514Z,10.20
2022-11-09T20:54:25.014Z,10.20
2022-11-09T20:57:11.754Z,10.10
2022-11-09T20:59:59.144Z,10.20
2022-11-09T21:02:46.976Z,10.20
2022-11-09T21:05:33.508Z,10.20
2022-11-09T21:08:20.105Z,10.20
2022-11-09T21:11:09.738Z,10.20
2022-11-09T21:13:57.762Z,10.10
2022-11-09T21:16:44.799Z,10.10
2022-11-09T21:19:31.408Z,10.10
2022-11-09T21:22:17.706Z,10.20
2022-11-09T21:25:25.139Z,10.20
2022-11-09T21:28:34.749Z,10.20
2022-11-09T21:31:20.795Z,10.20
2022-11-09T21:34:07.413Z,10.20
2022-11-09T21:36:53.564Z,10.30
2022-11-09T21:39:40.113Z,10.30
2022-11-09T21:42:26.997Z,10.40
2022-11-09T21:45:13.304Z,10.40
2022-11-09T21:47:59.594Z,10.40
2022-11-09T21:50:46.395Z,10.40
2022-11-09T21:53:32.742Z,10.50
2022-11-09T21:56:19.201Z,10.40
2022-11-09T21:59:06.148Z,10.40
2022-11-09T22:01:53.265Z,10.40
2022-11-09T22:04:39.756Z,10.40
2022-11-09T22:07:25.924Z,10.40
2022-11-09T22:10:12.257Z,10.50
2022-11-09T22:13:16.859Z,10.40
2022-11-09T22:16:06.881Z,10.40
2022-11-09T22:19:11.589Z,10.40
2022-11-09T22:21:57.946Z,10.40
2022-11-09T22:24:44.115Z,10.40
2022-11-09T22:27:31.608Z,10.50
2022-11-09T22:30:18.703Z,10.60
2022-11-09T22:33:04.886Z,10.60
2022-11-09T22:35:55.655Z,10.70
2022-11-09T22:38:41.988Z,10.80
2022-11-09T22:41:28.094Z,10.90
2022-11-09T22:44:14.526Z,10.90
2022-11-09T22:47:00.582Z,11.00
2022-11-09T22:49:46.783Z,11.00
2022-11-09T22:52:33.374Z,11.10
2022-11-09T22:55:20.157Z,11.10
2022-11-09T22:58:07.813Z,11.10
2022-11-09T23:00:54.995Z,11.10
2022-11-09T23:03:41.113Z,11.20
2022-11-09T23:06:27.186Z,11.20
2022-11-09T23:09:13.052Z,11.30
2022-11-09T23:11:59.258Z,11.30
2022-11-09T23:15:03.942Z,11.30
2022-11-09T23:18:10.752Z,11.40
2022-11-09T23:20:59.625Z,11.40
2022-11-09T23:23:46.597Z,11.50
2022-11-09T23:26:34.057Z,11.50
2022-11-09T23:29:19.867Z,11.50
2022-11-09T23:32:06.230Z,11.50
2022-11-09T23:34:52.627Z,11.50
2022-11-09T23:37:38.953Z,11.40
2022-11-09T23:40:25.107Z,11.40
2022-11-09T23:43:12.345Z,11.50
2022-11-09T23:46:06.851Z,11.40
2022-11-09T23:48:52.654Z,11.40
2022-11-09T23:51:38.605Z,11.40
2022-11-09T23:54:25.145Z,11.50
2022-11-09T23:57:12.086Z,11.40
2022-11-09T23:59:58.270Z,11.40
